createdAt,value
2023-03-19T00:00:31.395Z,4.25
2023-03-19T00:02:58.727Z,3.58
2023-03-19T00:05:26.035Z,4.95
2023-03-19T00:07:53.491Z,4.70
2023-03-19T00:10:21.431Z,5.28
2023-03-19T00:12:48.571Z,5.68
2023-03-19T00:15:16.136Z,4.78
2023-03-19T00:17:43.838Z,3.92
2023-03-19T00:20:12.892Z,5.00
2023-03-19T00:22:40.575Z,5.95
2023-03-19T00:25:10.000Z,3.60
2023-03-19T00:27:38.594Z,4.90
2023-03-19T00:30:07.441Z,5.50
2023-03-19T00:32:36.680Z,3.25
2023-03-19T00:35:06.485Z,5.80
2023-03-19T00:37:34.474Z,3.97
2023-03-19T00:40:02.578Z,4.00
2023-03-19T00:42:31.445Z,3.70
2023-03-19T00:44:58.840Z,4.85
2023-03-19T00:47:26.210Z,3.03
2023-03-19T00:49:53.331Z,3.08
2023-03-19T00:52:20.936Z,3.70
2023-03-19T00:54:48.115Z,2.72
2023-03-19T00:57:15.390Z,6.20
2023-03-19T00:59:42.682Z,4.28
2023-03-19T01:02:09.859Z,3.03
2023-03-19T01:04:37.169Z,3.58
2023-03-19T01:07:04.732Z,5.80
2023-03-19T01:09:33.070Z,5.55
2023-03-19T01:12:03.926Z,3.83
2023-03-19T01:14:32.769Z,4.53
2023-03-19T01:17:00.785Z,2.53
2023-03-19T01:19:28.171Z,4.47
2023-03-19T01:21:55.336Z,4.38
2023-03-19T01:24:24.453Z,3.55
2023-03-19T01:26:55.446Z,5.05
2023-03-19T01:29:42.803Z,4.75
2023-03-19T01:32:15.937Z,5.63
2023-03-19T01:35:01.867Z,3.90
2023-03-19T01:37:29.284Z,3.13
2023-03-19T01:39:56.699Z,8.73
2023-03-19T01:42:24.083Z,3.40
2023-03-19T01:45:00.554Z,4.57
2023-03-19T01:47:43.664Z,3.67
2023-03-19T01:52:50.718Z,3.42
2023-03-19T01:55:31.392Z,5.00
2023-03-19T01:58:17.893Z,2.20
2023-03-19T02:01:03.593Z,2.80
2023-03-19T02:03:33.380Z,2.25
2023-03-19T02:06:24.617Z,2.63
2023-03-19T02:08:52.677Z,2.25
2023-03-19T02:11:21.947Z,1.77
2023-03-19T02:13:49.296Z,3.17
2023-03-19T02:16:17.183Z,2.17
2023-03-19T02:18:45.051Z,2.70
2023-03-19T02:21:17.598Z,4.18
2023-03-19T02:24:17.761Z,2.60
2023-03-19T02:26:57.841Z,3.95
2023-03-19T02:29:25.173Z,4.47
2023-03-19T02:31:52.782Z,3.60
2023-03-19T02:34:19.902Z,4.45
2023-03-19T02:36:52.138Z,4.28
2023-03-19T02:39:51.454Z,3.20
2023-03-19T02:42:21.706Z,1.52
2023-03-19T02:44:48.843Z,2.00
2023-03-19T02:47:16.275Z,2.75
2023-03-19T02:49:43.492Z,2.55
2023-03-19T02:52:10.990Z,3.22
2023-03-19T02:54:38.135Z,2.97
2023-03-19T02:57:06.051Z,1.35
2023-03-19T02:59:33.619Z,3.78
2023-03-19T03:02:01.301Z,3.97
2023-03-19T03:04:29.284Z,2.67
2023-03-19T03:06:56.689Z,3.03
2023-03-19T03:09:24.170Z,2.17
2023-03-19T03:11:51.736Z,3.80
2023-03-19T03:14:19.034Z,3.40
2023-03-19T03:16:46.692Z,3.78
2023-03-19T03:19:13.844Z,2.47
2023-03-19T03:21:42.603Z,2.30
2023-03-19T03:24:11.149Z,3.63
2023-03-19T03:26:40.950Z,2.95
2023-03-19T03:29:09.140Z,6.57
2023-03-19T03:31:36.678Z,4.35
2023-03-19T03:34:03.943Z,2.92
2023-03-19T03:36:31.422Z,3.00
2023-03-19T03:38:58.706Z,4.50
2023-03-19T03:41:26.030Z,2.25
2023-03-19T03:43:53.369Z,3.25
2023-03-19T03:46:20.592Z,4.80
2023-03-19T03:48:51.490Z,4.97
2023-03-19T03:51:19.344Z,2.83
2023-03-19T03:53:46.529Z,3.92
2023-03-19T03:56:14.282Z,1.30
2023-03-19T03:58:41.773Z,5.50
2023-03-19T04:01:14.276Z,2.97
2023-03-19T04:03:41.594Z,4.18
2023-03-19T04:06:14.554Z,2.80
2023-03-19T04:08:42.253Z,6.40
2023-03-19T04:11:09.437Z,2.63
2023-03-19T04:13:37.247Z,2.85
2023-03-19T04:16:11.182Z,3.83
2023-03-19T04:18:38.962Z,1.70
2023-03-19T04:21:07.010Z,5.28
2023-03-19T04:23:34.292Z,5.15
2023-03-19T04:26:07.544Z,2.13
2023-03-19T04:28:35.169Z,9.10
2023-03-19T04:31:05.000Z,4.07
2023-03-19T04:33:34.379Z,3.83
2023-03-19T04:36:03.653Z,2.65
2023-03-19T04:38:31.994Z,4.65
2023-03-19T04:40:59.670Z,2.75
2023-03-19T04:43:27.426Z,3.00
2023-03-19T04:45:55.006Z,3.28
2023-03-19T04:48:23.450Z,5.50
2023-03-19T04:50:53.397Z,3.25
2023-03-19T04:53:20.800Z,7.05
2023-03-19T04:55:48.882Z,6.85
2023-03-19T04:58:20.290Z,5.18
2023-03-19T05:00:55.454Z,8.15
2023-03-19T05:03:31.155Z,5.00
2023-03-19T05:05:58.329Z,7.43
2023-03-19T05:08:25.713Z,4.43
2023-03-19T05:10:53.354Z,5.75
2023-03-19T05:13:21.765Z,15.40
2023-03-19T05:15:54.091Z,4.60
2023-03-19T05:18:22.484Z,6.57
2023-03-19T05:20:49.663Z,6.05
2023-03-19T05:23:23.187Z,6.50
2023-03-19T05:26:07.364Z,3.95
2023-03-19T05:28:52.929Z,8.63
2023-03-19T05:31:27.486Z,10.40
2023-03-19T05:33:55.023Z,5.63
2023-03-19T05:36:24.208Z,12.77
2023-03-19T05:39:06.097Z,10.80
2023-03-19T05:41:36.914Z,4.50
2023-03-19T05:44:07.266Z,3.30
2023-03-19T05:46:58.831Z,9.23
2023-03-19T05:49:29.814Z,5.35
2023-03-19T05:51:58.293Z,6.07
2023-03-19T05:54:25.807Z,7.60
2023-03-19T05:57:13.178Z,10.25
2023-03-19T05:59:49.081Z,5.63
2023-03-19T06:02:40.019Z,9.38
2023-03-19T06:05:29.304Z,3.97
2023-03-19T06:08:01.884Z,7.45
2023-03-19T06:10:50.832Z,6.47
2023-03-19T06:13:18.104Z,9.13
2023-03-19T06:15:58.629Z,4.20
2023-03-19T06:18:34.772Z,5.35
2023-03-19T06:23:34.271Z,1.42
2023-03-19T06:26:04.637Z,3.50
2023-03-19T06:28:35.839Z,5.43
2023-03-19T06:31:04.697Z,3.75
2023-03-19T06:33:56.432Z,4.32
2023-03-19T06:36:28.012Z,12.73
2023-03-19T06:38:55.659Z,8.45
2023-03-19T06:41:24.865Z,4.20
2023-03-19T06:43:53.424Z,7.65
2023-03-19T06:46:20.836Z,3.58
2023-03-19T06:48:48.060Z,11.50
2023-03-19T06:51:15.268Z,6.25
2023-03-19T06:53:42.450Z,4.18
2023-03-19T06:56:10.326Z,5.97
2023-03-19T06:58:37.591Z,2.88
2023-03-19T07:01:05.111Z,4.18
2023-03-19T07:03:32.320Z,8.55
2023-03-19T07:05:59.534Z,6.78
2023-03-19T07:08:29.824Z,4.93
2023-03-19T07:10:57.621Z,8.68
2023-03-19T07:13:24.758Z,4.88
2023-03-19T07:15:51.937Z,10.57
2023-03-19T07:18:19.037Z,5.35
2023-03-19T07:20:46.555Z,4.70
2023-03-19T07:23:13.743Z,4.95
2023-03-19T07:25:41.486Z,4.63
2023-03-19T07:28:08.607Z,5.60
2023-03-19T07:30:36.273Z,3.70
2023-03-19T07:33:03.813Z,5.13
2023-03-19T07:35:31.062Z,5.22
2023-03-19T07:37:59.474Z,3.45
2023-03-19T07:40:26.995Z,8.07
2023-03-19T07:42:54.146Z,11.23
2023-03-19T07:45:21.477Z,10.00
2023-03-19T07:47:51.555Z,7.68
2023-03-19T07:50:19.041Z,5.28
2023-03-19T07:52:48.090Z,7.68
2023-03-19T07:55:15.711Z,5.50
2023-03-19T07:57:42.947Z,5.15
2023-03-19T08:00:11.152Z,9.88
2023-03-19T08:02:42.809Z,10.00
2023-03-19T08:05:10.400Z,8.82
2023-03-19T08:07:37.575Z,10.45
2023-03-19T08:10:06.367Z,5.90
2023-03-19T08:12:34.641Z,6.50
2023-03-19T08:15:01.930Z,7.60
2023-03-19T08:17:29.147Z,5.50
2023-03-19T08:19:56.290Z,5.07
2023-03-19T08:22:23.370Z,7.03
2023-03-19T08:24:50.581Z,5.00
2023-03-19T08:27:17.683Z,4.13
2023-03-19T08:29:44.844Z,7.70
2023-03-19T08:32:12.199Z,8.98
2023-03-19T08:34:39.405Z,10.23
2023-03-19T08:37:06.913Z,9.77
2023-03-19T08:39:34.234Z,7.28
2023-03-19T08:42:01.402Z,6.00
2023-03-19T08:44:28.622Z,7.97
2023-03-19T08:46:55.780Z,8.82
2023-03-19T08:49:23.267Z,8.02
2023-03-19T08:51:50.868Z,8.35
2023-03-19T08:54:18.669Z,10.27
2023-03-19T08:56:47.002Z,10.85
2023-03-19T08:59:14.119Z,9.45
2023-03-19T09:01:41.855Z,8.07
2023-03-19T09:04:09.137Z,6.57
2023-03-19T09:06:36.294Z,3.20
2023-03-19T09:09:03.708Z,9.07
2023-03-19T09:11:31.060Z,6.50
2023-03-19T09:13:58.225Z,7.68
2023-03-19T09:16:26.286Z,4.43
2023-03-19T09:18:53.677Z,10.50
2023-03-19T09:21:20.845Z,5.25
2023-03-19T09:23:47.938Z,6.22
2023-03-19T09:26:15.041Z,5.95
2023-03-19T09:28:42.300Z,8.00
2023-03-19T09:31:12.589Z,11.80
2023-03-19T09:33:39.861Z,8.45
2023-03-19T09:36:07.511Z,7.57
2023-03-19T09:38:34.834Z,4.68
2023-03-19T09:41:22.489Z,6.00
2023-03-19T09:44:04.522Z,5.10
2023-03-19T09:46:56.777Z,7.20
2023-03-19T09:49:32.556Z,8.07
2023-03-19T09:52:09.720Z,6.75
2023-03-19T09:54:44.123Z,4.82
2023-03-19T09:57:13.842Z,2.67
2023-03-19T09:59:42.573Z,5.05
2023-03-19T10:02:24.577Z,6.82
2023-03-19T10:05:01.212Z,10.57
2023-03-19T10:07:45.777Z,4.65
2023-03-19T10:10:18.793Z,4.47
2023-03-19T10:12:49.589Z,3.90
2023-03-19T10:15:29.844Z,6.25
2023-03-19T10:18:21.718Z,4.53
2023-03-19T10:21:22.870Z,5.95
2023-03-19T10:24:05.187Z,3.90
2023-03-19T10:26:35.748Z,3.05
2023-03-19T10:29:15.556Z,5.05
2023-03-19T10:31:50.968Z,5.25
2023-03-19T10:34:35.162Z,5.97
2023-03-19T10:37:40.548Z,7.30
2023-03-19T10:40:20.013Z,1.98
2023-03-19T10:43:13.402Z,1.88
2023-03-19T10:45:41.163Z,2.63
2023-03-19T10:48:13.813Z,1.58
2023-03-19T10:50:51.405Z,3.92
2023-03-19T10:53:18.723Z,4.57
2023-03-19T10:55:56.175Z,3.20
2023-03-19T10:58:27.437Z,3.55
2023-03-19T11:01:06.988Z,2.55
2023-03-19T11:03:36.193Z,2.97
2023-03-19T11:06:27.404Z,1.10
2023-03-19T11:09:01.235Z,2.47
2023-03-19T11:11:44.769Z,1.63
2023-03-19T11:14:36.033Z,2.38
2023-03-19T11:17:29.663Z,3.67
2023-03-19T11:19:59.136Z,3.08
2023-03-19T11:22:32.334Z,1.63
2023-03-19T11:25:28.196Z,5.85
2023-03-19T11:28:06.297Z,3.70
2023-03-19T11:31:08.450Z,1.20
2023-03-19T11:33:57.327Z,2.80
2023-03-19T11:36:33.421Z,2.13
2023-03-19T11:39:00.770Z,3.88
2023-03-19T11:42:00.549Z,2.85
2023-03-19T11:44:46.022Z,3.45
2023-03-19T11:47:27.430Z,4.30
2023-03-19T11:50:25.094Z,2.70
2023-03-19T11:53:05.651Z,6.03
2023-03-19T11:55:47.197Z,5.63
2023-03-19T11:58:43.754Z,2.23
2023-03-19T12:01:25.410Z,2.63
2023-03-19T12:04:01.712Z,2.03
2023-03-19T12:06:37.413Z,2.22
2023-03-19T12:09:09.523Z,1.70
2023-03-19T12:11:42.484Z,2.70
2023-03-19T12:14:26.813Z,5.60
2023-03-19T12:16:57.357Z,1.38
2023-03-19T12:19:50.614Z,2.75
2023-03-19T12:22:52.928Z,3.90
2023-03-19T12:25:42.615Z,4.55
2023-03-19T12:28:30.458Z,4.22
2023-03-19T12:31:19.741Z,2.78
2023-03-19T12:34:06.023Z,2.05
2023-03-19T12:36:38.974Z,3.35
2023-03-19T12:39:17.164Z,5.32
2023-03-19T12:41:48.366Z,6.80
2023-03-19T12:44:22.696Z,5.55
2023-03-19T12:46:55.686Z,7.03
2023-03-19T12:49:36.981Z,4.43
2023-03-19T12:52:15.281Z,7.55
2023-03-19T12:54:50.418Z,3.05
2023-03-19T12:57:27.374Z,6.20
2023-03-19T13:00:07.704Z,2.45
2023-03-19T13:02:42.107Z,1.85
2023-03-19T13:05:15.386Z,3.75
2023-03-19T13:08:17.090Z,4.25
2023-03-19T13:10:44.468Z,2.38
2023-03-19T13:13:14.226Z,1.80
2023-03-19T13:15:47.981Z,4.35
2023-03-19T13:18:41.970Z,2.83
2023-03-19T13:21:21.673Z,3.90
2023-03-19T13:24:11.194Z,1.65
2023-03-19T13:26:39.579Z,3.70
2023-03-19T13:29:06.964Z,3.80
2023-03-19T13:31:35.690Z,8.80
2023-03-19T13:34:21.967Z,2.35
2023-03-19T13:37:05.445Z,2.95
2023-03-19T13:39:35.679Z,3.13
2023-03-19T13:42:09.154Z,3.33
2023-03-19T13:44:45.141Z,2.22
2023-03-19T13:47:28.921Z,5.25
2023-03-19T13:50:20.658Z,3.35
2023-03-19T13:52:53.650Z,3.63
2023-03-19T13:55:34.408Z,3.97
2023-03-19T13:58:17.642Z,2.60
2023-03-19T14:00:45.302Z,4.57
2023-03-19T14:03:26.957Z,4.78
2023-03-19T14:06:02.356Z,4.75
2023-03-19T14:08:52.001Z,6.90
2023-03-19T14:11:24.636Z,4.43
2023-03-19T14:13:59.095Z,4.13
2023-03-19T14:16:38.717Z,3.63
2023-03-19T14:19:13.802Z,2.20
2023-03-19T14:21:47.393Z,5.03
2023-03-19T14:25:02.109Z,4.75
2023-03-19T14:27:33.312Z,2.17
2023-03-19T14:30:10.642Z,3.20
2023-03-19T14:32:41.078Z,3.88
2023-03-19T14:35:13.104Z,3.08
2023-03-19T14:37:52.356Z,3.53
2023-03-19T14:40:27.091Z,3.08
2023-03-19T14:43:12.755Z,2.67
2023-03-19T14:45:59.992Z,6.28
2023-03-19T14:48:36.433Z,1.65
2023-03-19T14:51:28.038Z,3.70
2023-03-19T14:54:20.303Z,3.13
2023-03-19T14:56:48.961Z,7.35
2023-03-19T14:59:18.460Z,6.90
2023-03-19T15:01:51.220Z,7.47
2023-03-19T15:04:22.073Z,6.35
2023-03-19T15:06:57.796Z,4.57
2023-03-19T15:09:31.916Z,2.90
2023-03-19T15:12:31.393Z,3.50
2023-03-19T15:15:29.459Z,15.88
2023-03-19T15:18:11.451Z,7.63
2023-03-19T15:20:54.502Z,5.47
2023-03-19T15:23:27.586Z,6.32
2023-03-19T15:26:01.234Z,14.07
2023-03-19T15:28:44.633Z,18.17
2023-03-19T15:31:29.933Z,9.07
2023-03-19T15:34:00.523Z,7.00
2023-03-19T15:36:32.195Z,12.32
2023-03-19T15:39:05.085Z,21.25
2023-03-19T15:41:35.267Z,31.98
2023-03-19T15:44:08.209Z,28.75
2023-03-19T15:46:38.276Z,5.40
2023-03-19T15:49:23.705Z,14.13
2023-03-19T15:51:55.774Z,20.20
2023-03-19T15:54:23.354Z,13.77
2023-03-19T15:56:52.445Z,7.85
2023-03-19T15:59:23.025Z,10.63
2023-03-19T16:01:51.133Z,3.53
2023-03-19T16:04:22.876Z,5.70
2023-03-19T16:06:50.901Z,8.45
2023-03-19T16:09:23.851Z,3.38
2023-03-19T16:11:51.872Z,3.20
2023-03-19T16:14:41.297Z,2.90
2023-03-19T16:17:17.445Z,5.00
2023-03-19T16:19:52.571Z,10.75
2023-03-19T16:22:25.578Z,4.75
2023-03-19T16:24:55.325Z,6.35
2023-03-19T16:27:37.580Z,4.95
2023-03-19T16:30:20.923Z,4.10
2023-03-19T16:33:01.253Z,1.70
2023-03-19T16:35:30.709Z,2.72
2023-03-19T16:38:28.456Z,1.52
2023-03-19T16:41:26.269Z,3.33
2023-03-19T16:43:54.767Z,2.72
2023-03-19T16:46:23.394Z,4.78
2023-03-19T16:48:50.775Z,2.63
2023-03-19T16:51:21.218Z,2.25
2023-03-19T16:53:49.153Z,3.17
2023-03-19T16:56:18.854Z,12.95
2023-03-19T16:58:46.781Z,17.88
2023-03-19T17:01:19.476Z,25.65
2023-03-19T17:03:50.521Z,32.35
2023-03-19T17:06:18.758Z,26.27
2023-03-19T17:08:46.235Z,16.95
2023-03-19T17:11:40.795Z,13.13
2023-03-19T17:14:20.214Z,4.13
2023-03-19T17:16:48.605Z,3.67
2023-03-19T17:19:19.658Z,10.00
2023-03-19T17:21:49.568Z,8.40
2023-03-19T17:24:28.736Z,6.47
2023-03-19T17:26:58.382Z,10.07
2023-03-19T17:29:26.312Z,18.42
2023-03-19T17:31:54.991Z,18.73
2023-03-19T17:34:25.684Z,23.48
2023-03-19T17:36:56.106Z,21.05
2023-03-19T17:39:27.096Z,13.05
2023-03-19T17:41:54.253Z,11.40
2023-03-19T17:44:21.553Z,8.73
2023-03-19T17:46:54.154Z,16.23
2023-03-19T17:49:24.588Z,12.32
2023-03-19T17:51:52.179Z,14.70
2023-03-19T17:54:19.960Z,8.88
2023-03-19T17:56:47.655Z,6.88
2023-03-19T17:59:15.488Z,6.78
2023-03-19T18:01:43.778Z,4.90
2023-03-19T18:04:17.955Z,4.75
2023-03-19T18:06:49.803Z,3.72
2023-03-19T18:09:26.120Z,3.03
2023-03-19T18:11:54.244Z,5.75
2023-03-19T18:14:21.489Z,2.83
2023-03-19T18:16:48.901Z,1.90
2023-03-19T18:19:37.325Z,3.00
2023-03-19T18:22:16.763Z,8.93
2023-03-19T18:24:44.435Z,6.63
2023-03-19T18:27:11.599Z,4.82
2023-03-19T18:29:38.734Z,7.18
2023-03-19T18:32:13.839Z,5.47
2023-03-19T18:34:41.042Z,5.53
2023-03-19T18:37:15.456Z,3.88
2023-03-19T18:39:42.660Z,4.65
2023-03-19T18:42:14.312Z,7.60
2023-03-19T18:44:42.078Z,3.08
2023-03-19T18:47:15.693Z,4.60
2023-03-19T18:49:43.402Z,6.75
2023-03-19T18:52:19.080Z,4.50
2023-03-19T18:54:47.030Z,4.15
2023-03-19T18:57:15.916Z,5.75
2023-03-19T18:59:43.642Z,8.23
2023-03-19T19:02:33.626Z,8.98
2023-03-19T19:05:01.616Z,7.60
2023-03-19T19:07:28.807Z,5.63
2023-03-19T19:09:56.153Z,3.30
2023-03-19T19:12:23.678Z,5.55
2023-03-19T19:14:50.964Z,5.03
2023-03-19T19:17:21.402Z,8.43
2023-03-19T19:19:48.790Z,9.18
2023-03-19T19:22:17.652Z,6.00
2023-03-19T19:24:45.046Z,4.82
2023-03-19T19:27:22.012Z,6.75
2023-03-19T19:29:49.801Z,5.80
2023-03-19T19:32:26.723Z,6.57
2023-03-19T19:34:54.085Z,5.55
2023-03-19T19:37:23.238Z,4.32
2023-03-19T19:39:51.445Z,2.63
2023-03-19T19:42:21.242Z,4.07
2023-03-19T19:44:55.118Z,5.95
2023-03-19T19:47:25.644Z,4.97
2023-03-19T19:49:55.304Z,9.35
2023-03-19T19:52:22.742Z,4.45
2023-03-19T19:54:51.936Z,3.38
2023-03-19T19:57:23.006Z,3.72
2023-03-19T19:59:51.870Z,3.45
2023-03-19T20:02:29.610Z,4.03
2023-03-19T20:04:57.954Z,3.00
2023-03-19T20:07:28.950Z,6.68
2023-03-19T20:09:56.234Z,4.70
2023-03-19T20:12:33.943Z,4.20
2023-03-19T20:15:01.480Z,7.57
2023-03-19T20:17:28.756Z,9.32
2023-03-19T20:19:56.116Z,6.28
2023-03-19T20:22:23.386Z,15.60
2023-03-19T20:24:51.622Z,10.43
2023-03-19T20:27:22.049Z,7.88
2023-03-19T20:29:50.865Z,7.28
2023-03-19T20:32:38.458Z,5.88
2023-03-19T20:35:16.744Z,7.13
2023-03-19T20:37:45.054Z,9.40
2023-03-19T20:40:13.709Z,6.53
2023-03-19T20:42:43.441Z,3.05
2023-03-19T20:45:18.721Z,4.80
2023-03-19T20:47:46.962Z,5.05
2023-03-19T20:50:25.608Z,5.57
2023-03-19T20:52:53.165Z,6.90
2023-03-19T20:55:24.003Z,15.40
2023-03-19T20:57:52.323Z,5.95
2023-03-19T21:00:21.635Z,7.10
2023-03-19T21:02:50.923Z,8.38
2023-03-19T21:05:18.354Z,6.03
2023-03-19T21:07:48.768Z,6.45
2023-03-19T21:10:33.047Z,6.18
2023-03-19T21:13:01.925Z,6.80
2023-03-19T21:15:29.683Z,8.88
2023-03-19T21:17:57.499Z,6.10
2023-03-19T21:20:29.182Z,7.28
2023-03-19T21:23:21.005Z,6.25
2023-03-19T21:25:49.843Z,5.10
2023-03-19T21:28:26.990Z,5.97
2023-03-19T21:30:54.321Z,5.05
2023-03-19T21:33:27.449Z,4.40
2023-03-19T21:35:56.158Z,7.18
2023-03-19T21:38:23.867Z,5.20
2023-03-19T21:40:54.228Z,12.88
2023-03-19T21:43:36.335Z,6.50
2023-03-19T21:46:17.469Z,3.97
2023-03-19T21:48:55.149Z,7.70
2023-03-19T21:51:25.159Z,6.22
2023-03-19T21:53:52.663Z,4.65
2023-03-19T21:56:39.928Z,7.07
2023-03-19T21:59:14.683Z,7.63
2023-03-19T22:01:45.655Z,5.22
2023-03-19T22:04:13.243Z,5.57
2023-03-19T22:06:53.751Z,6.78
2023-03-19T22:09:27.470Z,16.10
2023-03-19T22:11:57.630Z,8.23
2023-03-19T22:14:27.200Z,11.85
2023-03-19T22:16:56.395Z,5.53
2023-03-19T22:19:23.962Z,10.43
2023-03-19T22:21:51.590Z,9.60
2023-03-19T22:24:18.938Z,8.52
2023-03-19T22:26:50.095Z,7.60
2023-03-19T22:29:25.879Z,8.48
2023-03-19T22:31:54.705Z,7.47
2023-03-19T22:34:25.060Z,5.43
2023-03-19T22:36:55.306Z,8.23
2023-03-19T22:39:22.988Z,8.15
2023-03-19T22:41:51.414Z,9.35
2023-03-19T22:44:30.951Z,7.35
2023-03-19T22:47:01.014Z,10.75
2023-03-19T22:49:29.807Z,5.53
2023-03-19T22:51:58.226Z,4.88
2023-03-19T22:54:26.473Z,8.43
2023-03-19T22:56:53.986Z,8.25
2023-03-19T22:59:21.777Z,6.40
2023-03-19T23:01:49.818Z,7.18
2023-03-19T23:04:25.663Z,8.05
2023-03-19T23:06:54.712Z,6.97
2023-03-19T23:09:29.478Z,10.30
2023-03-19T23:11:59.291Z,6.10
2023-03-19T23:14:30.964Z,14.57
2023-03-19T23:17:07.405Z,11.73
2023-03-19T23:19:37.581Z,8.63
2023-03-19T23:22:07.180Z,10.07
2023-03-19T23:24:35.164Z,7.75
2023-03-19T23:27:03.871Z,6.45
2023-03-19T23:29:39.900Z,8.68
2023-03-19T23:32:09.847Z,5.78
2023-03-19T23:34:55.893Z,6.10
2023-03-19T23:37:25.376Z,6.90
2023-03-19T23:39:53.730Z,8.27
2023-03-19T23:42:29.736Z,6.68
2023-03-19T23:45:04.020Z,6.43
2023-03-19T23:47:31.723Z,7.50
2023-03-19T23:49:58.954Z,8.05
2023-03-19T23:52:26.634Z,8.23
2023-03-19T23:54:54.131Z,6.65
2023-03-19T23:57:23.061Z,4.82
2023-03-19T23:59:52.352Z,6.65
